createdAt,value
2019-05-25T00:00:08.546Z,7.10
2019-05-25T00:01:08.548Z,6.10
2019-05-25T00:02:08.539Z,5.30
2019-05-25T00:03:08.540Z,6.20
2019-05-25T00:04:08.507Z,6.10
2019-05-25T00:05:08.498Z,5.90
2019-05-25T00:06:08.478Z,4.90
2019-05-25T00:07:08.479Z,5.50
2019-05-25T00:08:08.462Z,5.50
2019-05-25T00:09:08.486Z,5.80
2019-05-25T00:10:08.489Z,6.60
2019-05-25T00:11:08.439Z,5.30
2019-05-25T00:12:08.422Z,6.50
2019-05-25T00:13:08.435Z,5.60
2019-05-25T00:14:08.410Z,5.70
2019-05-25T00:15:08.389Z,5.20
2019-05-25T00:16:08.370Z,5.40
2019-05-25T00:17:08.362Z,6.70
2019-05-25T00:18:08.345Z,5.10
2019-05-25T00:19:08.384Z,4.90
2019-05-25T00:20:08.330Z,5.00
2019-05-25T00:21:08.317Z,5.70
2019-05-25T00:22:08.334Z,6.30
2019-05-25T00:23:08.318Z,4.80
2019-05-25T00:24:12.308Z,4.90
2019-05-25T00:25:08.269Z,5.80
2019-05-25T00:26:08.269Z,7.50
2019-05-25T00:27:08.244Z,5.70
2019-05-25T00:28:08.238Z,6.40
2019-05-25T00:29:08.244Z,6.90
2019-05-25T00:30:08.219Z,5.80
2019-05-25T00:31:08.228Z,6.40
2019-05-25T00:32:08.200Z,5.90
2019-05-25T00:33:08.183Z,5.70
2019-05-25T00:34:08.194Z,6.10
2019-05-25T00:35:08.156Z,5.50
2019-05-25T00:36:08.150Z,5.50
2019-05-25T00:37:08.142Z,5.50
2019-05-25T00:38:08.127Z,5.90
2019-05-25T00:39:08.143Z,6.10
2019-05-25T00:40:08.141Z,6.30
2019-05-25T00:41:08.104Z,6.10
2019-05-25T00:42:08.078Z,7.30
2019-05-25T00:43:08.078Z,6.60
2019-05-25T00:44:08.111Z,6.40
2019-05-25T00:45:08.056Z,6.60
2019-05-25T00:46:08.036Z,5.80
2019-05-25T00:47:08.025Z,7.40
2019-05-25T00:48:08.022Z,5.90
2019-05-25T00:49:08.024Z,5.90
2019-05-25T00:50:07.996Z,5.90
2019-05-25T00:51:07.996Z,7.90
2019-05-25T00:52:07.980Z,8.30
2019-05-25T00:53:08.000Z,6.40
2019-05-25T00:54:07.970Z,8.20
2019-05-25T00:55:07.955Z,7.00
2019-05-25T00:56:07.926Z,6.80
2019-05-25T00:57:07.918Z,7.30
2019-05-25T00:58:07.905Z,6.30
2019-05-25T00:59:07.911Z,7.50
2019-05-25T01:00:07.890Z,5.30
2019-05-25T01:01:07.878Z,6.10
2019-05-25T01:02:07.882Z,7.80
2019-05-25T01:03:07.863Z,5.90
2019-05-25T01:04:07.857Z,6.40
2019-05-25T01:05:07.847Z,7.70
2019-05-25T01:06:07.826Z,8.40
2019-05-25T01:07:07.805Z,6.60
2019-05-25T01:08:07.794Z,5.90
2019-05-25T01:09:07.884Z,6.40
2019-05-25T01:10:07.796Z,5.90
2019-05-25T01:11:07.804Z,6.20
2019-05-25T01:12:07.753Z,7.10
2019-05-25T01:13:07.765Z,6.20
2019-05-25T01:14:07.732Z,8.80
2019-05-25T01:15:07.807Z,6.50
2019-05-25T01:16:07.714Z,7.20
2019-05-25T01:17:07.698Z,6.30
2019-05-25T01:18:07.706Z,7.00
2019-05-25T01:19:07.681Z,6.40
2019-05-25T01:20:07.693Z,6.30
2019-05-25T01:21:07.664Z,5.80
2019-05-25T01:22:07.638Z,6.20
2019-05-25T01:23:07.627Z,8.20
2019-05-25T01:24:07.638Z,5.40
2019-05-25T01:25:07.676Z,5.10
2019-05-25T01:26:07.596Z,6.50
2019-05-25T01:27:07.599Z,6.30
2019-05-25T01:28:07.587Z,6.00
2019-05-25T01:29:07.561Z,5.70
2019-05-25T01:30:07.588Z,5.70
2019-05-25T01:31:07.566Z,5.70
2019-05-25T01:32:07.546Z,6.20
2019-05-25T01:33:07.513Z,5.70
2019-05-25T01:34:07.504Z,6.60
2019-05-25T01:35:07.502Z,6.60
2019-05-25T01:36:07.504Z,5.00
2019-05-25T01:37:07.482Z,5.10
2019-05-25T01:38:07.481Z,5.40
2019-05-25T01:39:07.462Z,5.60
2019-05-25T01:40:07.436Z,6.30
2019-05-25T01:41:07.453Z,5.90
2019-05-25T01:42:07.423Z,6.30
2019-05-25T01:43:07.426Z,6.80
2019-05-25T01:44:07.401Z,6.30
2019-05-25T01:45:07.384Z,5.80
2019-05-25T01:46:07.401Z,5.50
2019-05-25T01:47:07.382Z,6.60
2019-05-25T01:48:07.369Z,5.70
2019-05-25T01:49:07.389Z,5.60
2019-05-25T01:50:07.349Z,5.60
2019-05-25T01:51:07.345Z,5.60
2019-05-25T01:52:07.314Z,5.90
2019-05-25T01:53:07.293Z,6.40
2019-05-25T01:54:07.284Z,5.20
2019-05-25T01:55:07.283Z,5.50
2019-05-25T01:56:07.295Z,5.10
2019-05-25T01:57:07.273Z,5.60
2019-05-25T01:58:07.250Z,5.60
2019-05-25T01:59:07.240Z,5.50
2019-05-25T02:00:07.222Z,7.00
2019-05-25T02:01:07.241Z,6.00
2019-05-25T02:02:07.234Z,6.60
2019-05-25T02:03:07.187Z,5.20
2019-05-25T02:04:07.174Z,5.60
2019-05-25T02:05:07.178Z,5.80
2019-05-25T02:06:07.195Z,5.70
2019-05-25T02:07:07.153Z,6.00
2019-05-25T02:08:07.161Z,5.30
2019-05-25T02:09:07.115Z,5.70
2019-05-25T02:10:07.125Z,5.10
2019-05-25T02:11:07.119Z,5.30
2019-05-25T02:12:07.129Z,6.80
2019-05-25T02:13:07.087Z,7.40
2019-05-25T02:14:07.082Z,5.90
2019-05-25T02:15:07.056Z,5.90
2019-05-25T02:16:07.049Z,6.70
2019-05-25T02:17:07.048Z,5.40
2019-05-25T02:18:07.042Z,5.80
2019-05-25T02:19:07.007Z,5.60
2019-05-25T02:20:07.010Z,5.90
2019-05-25T02:21:06.984Z,5.50
2019-05-25T02:22:06.991Z,5.60
2019-05-25T02:23:06.974Z,5.80
2019-05-25T02:24:06.960Z,5.60
2019-05-25T02:25:17.232Z,5.50
2019-05-25T02:26:07.927Z,5.90
2019-05-25T02:27:06.949Z,5.90
2019-05-25T02:28:06.912Z,5.40
2019-05-25T02:29:06.893Z,5.70
2019-05-25T02:30:06.895Z,5.60
2019-05-25T02:31:06.881Z,5.50
2019-05-25T02:32:06.914Z,5.80
2019-05-25T02:33:06.896Z,5.50
2019-05-25T02:34:06.841Z,5.90
2019-05-25T02:35:06.841Z,5.60
2019-05-25T02:36:06.867Z,5.60
2019-05-25T02:37:06.810Z,5.50
2019-05-25T02:38:06.823Z,5.80
2019-05-25T02:39:06.786Z,5.80
2019-05-25T02:40:06.775Z,6.30
2019-05-25T02:41:06.762Z,5.60
2019-05-25T02:42:06.756Z,5.60
2019-05-25T02:43:06.775Z,6.10
2019-05-25T02:44:06.756Z,6.00
2019-05-25T02:45:06.719Z,5.60
2019-05-25T02:46:06.723Z,6.30
2019-05-25T02:47:06.697Z,6.50
2019-05-25T02:48:06.712Z,6.10
2019-05-25T02:49:06.681Z,5.90
2019-05-25T02:50:06.661Z,6.00
2019-05-25T02:51:06.652Z,6.10
2019-05-25T02:52:06.645Z,6.60
2019-05-25T02:53:06.655Z,6.40
2019-05-25T02:54:06.635Z,6.50
2019-05-25T02:55:06.607Z,7.30
2019-05-25T02:56:06.595Z,6.90
2019-05-25T02:57:06.599Z,8.00
2019-05-25T02:58:06.576Z,7.70
2019-05-25T02:59:06.598Z,6.60
2019-05-25T03:00:06.556Z,6.80
2019-05-25T03:01:06.617Z,6.70
2019-05-25T03:02:06.541Z,6.40
2019-05-25T03:03:06.532Z,6.60
2019-05-25T03:04:06.526Z,6.70
2019-05-25T03:05:06.517Z,6.90
2019-05-25T03:06:07.381Z,7.40
2019-05-25T03:07:06.482Z,6.80
2019-05-25T03:08:06.486Z,8.00
2019-05-25T03:09:06.486Z,7.40
2019-05-25T03:10:06.444Z,6.30
2019-05-25T03:11:06.474Z,7.00
2019-05-25T03:12:06.428Z,7.00
2019-05-25T03:13:06.409Z,7.10
2019-05-25T03:14:06.435Z,8.10
2019-05-25T03:15:06.960Z,6.90
2019-05-25T03:16:06.385Z,7.90
2019-05-25T03:17:06.362Z,6.90
2019-05-25T03:18:06.359Z,6.40
2019-05-25T03:19:06.361Z,7.50
2019-05-25T03:20:06.327Z,6.60
2019-05-25T03:21:06.342Z,7.10
2019-05-25T03:22:06.307Z,6.50
2019-05-25T03:23:06.311Z,6.40
2019-05-25T03:24:06.332Z,6.60
2019-05-25T03:25:06.275Z,6.40
2019-05-25T03:26:06.274Z,6.90
2019-05-25T03:27:06.263Z,6.60
2019-05-25T03:28:06.239Z,6.90
2019-05-25T03:29:06.258Z,7.00
2019-05-25T03:30:06.226Z,6.20
2019-05-25T03:31:06.210Z,6.30
2019-05-25T03:32:06.198Z,6.50
2019-05-25T03:33:06.198Z,6.80
2019-05-25T03:34:06.211Z,6.80
2019-05-25T03:35:06.169Z,7.10
2019-05-25T03:36:06.171Z,6.80
2019-05-25T03:37:06.145Z,8.00
2019-05-25T03:38:06.135Z,7.10
2019-05-25T03:39:06.161Z,7.20
2019-05-25T03:40:06.113Z,7.10
2019-05-25T03:41:06.100Z,7.10
2019-05-25T03:42:06.102Z,6.70
2019-05-25T03:43:06.077Z,8.10
2019-05-25T03:44:06.073Z,7.30
2019-05-25T03:45:06.069Z,7.20
2019-05-25T03:46:06.062Z,7.70
2019-05-25T03:47:06.030Z,8.10
2019-05-25T03:48:06.039Z,7.60
2019-05-25T03:49:06.012Z,8.00
2019-05-25T03:50:06.029Z,7.60
2019-05-25T03:51:05.985Z,7.70
2019-05-25T03:52:06.013Z,8.50
2019-05-25T03:53:05.987Z,7.80
2019-05-25T03:54:05.971Z,8.40
2019-05-25T03:55:06.006Z,8.10
2019-05-25T03:56:06.579Z,7.30
2019-05-25T03:57:05.919Z,7.70
2019-05-25T03:58:05.921Z,7.70
2019-05-25T03:59:05.908Z,8.50
2019-05-25T04:00:05.892Z,7.70
2019-05-25T04:01:05.935Z,8.60
2019-05-25T04:02:05.868Z,8.80
2019-05-25T04:03:05.888Z,8.00
2019-05-25T04:04:05.847Z,8.00
2019-05-25T04:05:05.841Z,8.30
2019-05-25T04:06:05.844Z,8.80
2019-05-25T04:07:05.807Z,8.60
2019-05-25T04:08:05.861Z,9.10
2019-05-25T04:09:05.788Z,9.00
2019-05-25T04:10:05.789Z,8.90
2019-05-25T04:11:05.786Z,9.20
2019-05-25T04:12:05.756Z,9.00
2019-05-25T04:13:05.741Z,9.70
2019-05-25T04:14:05.735Z,8.80
2019-05-25T04:15:05.743Z,8.80
2019-05-25T04:16:05.760Z,8.80
2019-05-25T04:17:05.698Z,8.90
2019-05-25T04:18:05.691Z,8.90
2019-05-25T04:19:05.676Z,9.20
2019-05-25T04:20:05.665Z,8.50
2019-05-25T04:21:05.680Z,9.00
2019-05-25T04:22:05.648Z,9.60
2019-05-25T04:23:05.649Z,9.10
2019-05-25T04:24:05.630Z,9.90
2019-05-25T04:25:05.613Z,10.70
2019-05-25T04:26:20.925Z,9.90
2019-05-25T04:27:06.594Z,9.40
2019-05-25T04:28:05.578Z,9.00
2019-05-25T04:29:05.573Z,9.10
2019-05-25T04:30:05.574Z,9.10
2019-05-25T04:31:05.573Z,9.70
2019-05-25T04:32:05.534Z,8.60
2019-05-25T04:33:05.524Z,10.20
2019-05-25T04:34:05.559Z,9.40
2019-05-25T04:35:05.524Z,8.70
2019-05-25T04:36:05.532Z,9.10
2019-05-25T04:37:05.484Z,9.50
2019-05-25T04:38:05.468Z,9.30
2019-05-25T04:39:05.459Z,9.30
2019-05-25T04:40:05.462Z,9.70
2019-05-25T04:41:05.474Z,9.30
2019-05-25T04:42:05.432Z,9.50
2019-05-25T04:43:05.410Z,9.30
2019-05-25T04:44:05.422Z,8.70
2019-05-25T04:45:05.407Z,9.30
2019-05-25T04:46:05.522Z,9.20
2019-05-25T04:47:05.394Z,9.00
2019-05-25T04:48:05.365Z,8.60
2019-05-25T04:49:05.346Z,9.50
2019-05-25T04:50:05.336Z,9.20
2019-05-25T04:51:05.327Z,9.40
2019-05-25T04:52:05.337Z,9.20
2019-05-25T04:53:05.303Z,9.30
2019-05-25T04:54:05.298Z,9.80
2019-05-25T04:55:05.285Z,9.70
2019-05-25T04:56:05.269Z,10.40
2019-05-25T04:57:05.354Z,9.50
2019-05-25T04:58:05.253Z,10.50
2019-05-25T04:59:05.239Z,9.90
2019-05-25T05:00:05.237Z,9.50
2019-05-25T05:01:05.244Z,9.40
2019-05-25T05:02:05.285Z,9.50
2019-05-25T05:03:05.200Z,10.90
2019-05-25T05:04:05.195Z,12.10
2019-05-25T05:05:05.170Z,10.00
2019-05-25T05:06:05.155Z,10.00
2019-05-25T05:07:05.211Z,10.50
2019-05-25T05:08:05.172Z,9.90
2019-05-25T05:09:05.193Z,9.40
2019-05-25T05:10:05.123Z,9.20
2019-05-25T05:11:05.108Z,9.10
2019-05-25T05:12:05.119Z,8.60
2019-05-25T05:13:05.096Z,9.40
2019-05-25T05:14:05.074Z,9.50
2019-05-25T05:15:05.073Z,9.50
2019-05-25T05:16:05.048Z,9.50
2019-05-25T05:17:05.047Z,9.80
2019-05-25T05:18:05.043Z,9.50
2019-05-25T05:19:05.013Z,9.30
2019-05-25T05:20:05.037Z,9.70
2019-05-25T05:21:04.997Z,10.40
2019-05-25T05:22:06.037Z,9.80
2019-05-25T05:23:04.987Z,9.20
2019-05-25T05:24:04.960Z,9.50
2019-05-25T05:25:04.946Z,10.10
2019-05-25T05:26:04.944Z,10.30
2019-05-25T05:27:04.926Z,9.40
2019-05-25T05:28:04.930Z,10.00
2019-05-25T05:29:04.973Z,10.10
2019-05-25T05:30:04.911Z,9.60
2019-05-25T05:31:04.896Z,9.00
2019-05-25T05:32:04.871Z,9.90
2019-05-25T05:33:04.880Z,9.20
2019-05-25T05:34:04.884Z,9.20
2019-05-25T05:35:04.844Z,9.20
2019-05-25T05:36:04.835Z,9.40
2019-05-25T05:37:04.814Z,9.70
2019-05-25T05:38:04.827Z,8.90
2019-05-25T05:39:04.814Z,9.10
2019-05-25T05:40:04.796Z,9.90
2019-05-25T05:41:04.779Z,12.20
2019-05-25T05:42:04.762Z,8.70
2019-05-25T05:43:04.769Z,8.80
2019-05-25T05:44:04.742Z,8.90
2019-05-25T05:45:04.735Z,9.60
2019-05-25T05:46:04.719Z,9.00
2019-05-25T05:47:04.712Z,9.20
2019-05-25T05:48:04.716Z,8.70
2019-05-25T05:49:04.713Z,9.20
2019-05-25T05:50:04.700Z,8.90
2019-05-25T05:51:04.665Z,8.60
2019-05-25T05:52:04.655Z,9.20
2019-05-25T05:53:04.667Z,10.30
2019-05-25T05:54:04.646Z,9.40
2019-05-25T05:55:04.614Z,9.40
2019-05-25T05:56:04.604Z,8.60
2019-05-25T05:57:12.358Z,9.60
2019-05-25T05:58:05.603Z,8.70
2019-05-25T05:59:04.608Z,9.40
2019-05-25T06:00:04.569Z,10.20
2019-05-25T06:01:04.550Z,8.70
2019-05-25T06:02:04.542Z,8.70
2019-05-25T06:03:04.545Z,8.40
2019-05-25T06:04:04.540Z,7.90
2019-05-25T06:05:04.521Z,8.50
2019-05-25T06:06:04.504Z,8.80
2019-05-25T06:07:04.502Z,8.70
2019-05-25T06:08:04.479Z,8.70
2019-05-25T06:09:04.526Z,8.60
2019-05-25T06:10:04.469Z,10.50
2019-05-25T06:11:04.440Z,9.40
2019-05-25T06:12:04.431Z,8.20
2019-05-25T06:13:04.419Z,9.20
2019-05-25T06:14:04.425Z,9.30
2019-05-25T06:15:04.391Z,12.20
2019-05-25T06:16:04.389Z,8.50
2019-05-25T06:17:04.372Z,8.60
2019-05-25T06:18:04.379Z,9.10
2019-05-25T06:19:04.366Z,8.20
2019-05-25T06:20:04.368Z,9.00
2019-05-25T06:21:04.327Z,8.20
2019-05-25T06:22:04.319Z,8.30
2019-05-25T06:23:07.802Z,9.30
2019-05-25T06:24:05.340Z,10.00
2019-05-25T06:25:04.285Z,10.20
2019-05-25T06:26:04.272Z,9.20
2019-05-25T06:27:04.265Z,9.20
2019-05-25T06:28:04.276Z,9.50
2019-05-25T06:29:04.270Z,9.20
2019-05-25T06:30:04.232Z,9.40
2019-05-25T06:31:04.216Z,8.50
2019-05-25T06:32:04.209Z,8.70
2019-05-25T06:33:04.203Z,9.30
2019-05-25T06:34:04.193Z,9.20
2019-05-25T06:35:04.202Z,8.50
2019-05-25T06:36:04.171Z,9.00
2019-05-25T06:37:04.150Z,9.50
2019-05-25T06:38:04.153Z,9.10
2019-05-25T06:39:04.155Z,8.70
2019-05-25T06:40:04.135Z,8.50
2019-05-25T06:41:04.109Z,8.50
2019-05-25T06:42:04.094Z,8.90
2019-05-25T06:43:04.093Z,8.50
2019-05-25T06:44:04.081Z,9.60
2019-05-25T06:45:04.089Z,7.80
2019-05-25T06:46:04.050Z,8.50
2019-05-25T06:47:04.054Z,9.70
2019-05-25T06:48:04.031Z,10.70
2019-05-25T06:49:04.038Z,8.20
2019-05-25T06:50:04.005Z,7.70
2019-05-25T06:51:04.033Z,8.00
2019-05-25T06:52:03.988Z,7.50
2019-05-25T06:53:03.996Z,8.40
2019-05-25T06:54:03.960Z,7.80
2019-05-25T06:55:03.969Z,8.50
2019-05-25T06:56:03.970Z,7.80
2019-05-25T06:57:03.939Z,7.60
2019-05-25T06:58:03.920Z,7.20
2019-05-25T06:59:03.910Z,8.60
2019-05-25T07:00:03.896Z,7.20
2019-05-25T07:01:03.907Z,8.20
2019-05-25T07:02:03.873Z,8.20
2019-05-25T07:03:03.870Z,7.10
2019-05-25T07:04:03.855Z,6.70
2019-05-25T07:05:03.863Z,7.30
2019-05-25T07:06:03.839Z,8.20
2019-05-25T07:07:03.826Z,7.30
2019-05-25T07:08:03.848Z,6.90
2019-05-25T07:09:03.813Z,7.20
2019-05-25T07:10:03.787Z,6.30
2019-05-25T07:11:03.879Z,7.10
2019-05-25T07:12:03.784Z,8.30
2019-05-25T07:13:03.761Z,7.00
2019-05-25T07:14:03.744Z,6.30
2019-05-25T07:15:03.730Z,6.20
2019-05-25T07:16:03.745Z,6.90
2019-05-25T07:17:03.709Z,7.60
2019-05-25T07:18:03.708Z,7.10
2019-05-25T07:19:03.699Z,6.10
2019-05-25T07:20:03.687Z,6.40
2019-05-25T07:21:03.685Z,6.80
2019-05-25T07:22:03.673Z,7.60
2019-05-25T07:23:03.650Z,6.40
2019-05-25T07:24:03.631Z,5.80
2019-05-25T07:25:03.626Z,7.00
2019-05-25T07:26:03.636Z,6.30
2019-05-25T07:27:03.605Z,6.40
2019-05-25T07:28:03.592Z,6.30
2019-05-25T07:29:03.582Z,7.10
2019-05-25T07:30:03.579Z,7.00
2019-05-25T07:31:03.574Z,7.30
2019-05-25T07:32:03.561Z,6.60
2019-05-25T07:33:03.550Z,6.40
2019-05-25T07:34:03.528Z,6.30
2019-05-25T07:35:03.515Z,7.30
2019-05-25T07:36:07.373Z,7.30
2019-05-25T07:37:03.500Z,6.30
2019-05-25T07:38:03.489Z,6.80
2019-05-25T07:39:03.484Z,5.70
2019-05-25T07:40:03.462Z,7.20
2019-05-25T07:41:03.477Z,6.20
2019-05-25T07:42:03.445Z,6.10
2019-05-25T07:43:03.435Z,5.90
2019-05-25T07:44:03.412Z,7.00
2019-05-25T07:45:03.408Z,6.90
2019-05-25T07:46:03.394Z,6.70
2019-05-25T07:47:03.403Z,7.10
2019-05-25T07:48:03.372Z,5.90
2019-05-25T07:49:03.371Z,6.30
2019-05-25T07:50:03.350Z,5.90
2019-05-25T07:51:03.344Z,5.70
2019-05-25T07:52:03.352Z,7.10
2019-05-25T07:53:03.317Z,7.30
2019-05-25T07:54:03.338Z,7.20
2019-05-25T07:55:03.301Z,6.90
2019-05-25T07:56:03.285Z,7.40
2019-05-25T07:57:03.297Z,5.90
2019-05-25T07:58:16.938Z,7.10
2019-05-25T07:59:04.253Z,6.50
2019-05-25T08:00:03.247Z,6.90
2019-05-25T08:01:03.228Z,6.70
2019-05-25T08:02:03.250Z,5.80
2019-05-25T08:03:03.215Z,5.90
2019-05-25T08:04:03.206Z,7.30
2019-05-25T08:05:03.200Z,6.60
2019-05-25T08:06:03.190Z,7.70
2019-05-25T08:07:03.185Z,6.90
2019-05-25T08:08:03.764Z,6.00
2019-05-25T08:09:03.142Z,5.80
2019-05-25T08:10:03.147Z,6.00
2019-05-25T08:11:03.127Z,6.40
2019-05-25T08:12:03.169Z,5.40
2019-05-25T08:13:03.095Z,5.90
2019-05-25T08:14:03.091Z,5.70
2019-05-25T08:15:03.083Z,6.70
2019-05-25T08:16:03.084Z,5.90
2019-05-25T08:17:03.107Z,6.90
2019-05-25T08:18:03.123Z,6.70
2019-05-25T08:19:03.033Z,8.90
2019-05-25T08:20:03.018Z,6.10
2019-05-25T08:21:03.022Z,6.90
2019-05-25T08:22:03.042Z,8.70
2019-05-25T08:23:03.014Z,7.50
2019-05-25T08:24:03.002Z,7.30
2019-05-25T08:25:02.978Z,7.40
2019-05-25T08:26:02.966Z,7.70
2019-05-25T08:27:02.979Z,6.20
2019-05-25T08:28:02.974Z,7.70
2019-05-25T08:29:02.962Z,7.30
2019-05-25T08:30:02.912Z,6.20
2019-05-25T08:31:02.908Z,7.80
2019-05-25T08:32:02.904Z,6.90
2019-05-25T08:33:02.901Z,7.30
2019-05-25T08:34:02.877Z,7.40
2019-05-25T08:35:02.869Z,6.10
2019-05-25T08:36:02.851Z,6.30
2019-05-25T08:37:02.853Z,6.40
2019-05-25T08:38:02.882Z,9.00
2019-05-25T08:39:02.832Z,5.80
2019-05-25T08:40:02.802Z,5.90
2019-05-25T08:41:02.820Z,6.20
2019-05-25T08:42:02.792Z,6.90
2019-05-25T08:43:02.774Z,6.70
2019-05-25T08:44:04.563Z,6.30
2019-05-25T08:45:02.770Z,6.10
2019-05-25T08:46:02.754Z,7.60
2019-05-25T08:47:02.739Z,7.60
2019-05-25T08:48:02.730Z,6.50
2019-05-25T08:49:02.734Z,6.60
2019-05-25T08:50:02.707Z,7.20
2019-05-25T08:51:02.697Z,6.90
2019-05-25T08:52:04.267Z,7.90
2019-05-25T08:53:02.664Z,6.90
2019-05-25T08:54:02.663Z,6.10
2019-05-25T08:55:02.813Z,6.70
2019-05-25T08:56:02.631Z,6.20
2019-05-25T08:57:02.763Z,7.10
2019-05-25T08:58:02.643Z,6.70
2019-05-25T08:59:02.640Z,7.40
2019-05-25T09:00:02.633Z,7.80
2019-05-25T09:01:02.580Z,8.70
2019-05-25T09:02:02.586Z,7.30
2019-05-25T09:03:02.549Z,9.50
2019-05-25T09:04:02.556Z,9.70
2019-05-25T09:05:02.545Z,7.50
2019-05-25T09:06:02.530Z,6.80
2019-05-25T09:07:02.509Z,7.10
2019-05-25T09:08:02.497Z,7.10
2019-05-25T09:09:02.510Z,7.30
2019-05-25T09:10:02.476Z,8.60
2019-05-25T09:11:02.467Z,8.60
2019-05-25T09:12:02.548Z,6.90
2019-05-25T09:13:02.453Z,6.40
2019-05-25T09:14:02.470Z,6.70
2019-05-25T09:15:05.796Z,7.00
2019-05-25T09:16:02.414Z,5.10
2019-05-25T09:17:02.403Z,5.50
2019-05-25T09:18:02.393Z,6.30
2019-05-25T09:19:02.388Z,5.60
2019-05-25T09:20:02.384Z,7.10
2019-05-25T09:21:02.375Z,6.30
2019-05-25T09:22:03.837Z,5.50
2019-05-25T09:23:02.341Z,8.20
2019-05-25T09:24:02.364Z,6.50
2019-05-25T09:25:02.316Z,6.10
2019-05-25T09:26:02.303Z,5.30
2019-05-25T09:27:02.304Z,5.00
2019-05-25T09:28:02.332Z,7.00
2019-05-25T09:29:04.850Z,5.60
2019-05-25T09:30:02.275Z,5.30
2019-05-25T09:31:02.292Z,6.30
2019-05-25T09:32:02.297Z,6.60
2019-05-25T09:33:02.237Z,7.30
2019-05-25T09:34:02.243Z,6.20
2019-05-25T09:35:02.240Z,6.80
2019-05-25T09:36:02.215Z,6.40
2019-05-25T09:37:02.186Z,7.90
2019-05-25T09:38:02.175Z,6.30
2019-05-25T09:39:02.167Z,5.90
2019-05-25T09:40:02.323Z,5.80
2019-05-25T09:41:02.156Z,6.80
2019-05-25T09:42:02.122Z,6.30
2019-05-25T09:43:02.151Z,9.10
2019-05-25T09:44:02.252Z,6.30
2019-05-25T09:45:02.166Z,6.90
2019-05-25T09:46:03.370Z,6.20
2019-05-25T09:47:02.086Z,6.70
2019-05-25T09:48:02.335Z,6.30
2019-05-25T09:49:02.059Z,7.10
2019-05-25T09:50:02.087Z,8.80
2019-05-25T09:51:02.050Z,6.70
2019-05-25T09:52:02.018Z,5.80
2019-05-25T09:53:02.018Z,5.90
2019-05-25T09:54:02.697Z,6.40
2019-05-25T09:55:02.049Z,6.60
2019-05-25T09:56:02.090Z,6.40
2019-05-25T09:57:02.079Z,7.80
2019-05-25T09:58:02.034Z,6.60
2019-05-25T09:59:02.127Z,6.50
2019-05-25T10:00:01.938Z,8.30
2019-05-25T10:01:01.982Z,6.80
2019-05-25T10:02:01.953Z,5.60
2019-05-25T10:03:01.907Z,6.30
2019-05-25T10:04:01.892Z,6.50
2019-05-25T10:05:01.900Z,5.60
2019-05-25T10:06:10.669Z,5.90
2019-05-25T10:07:02.865Z,5.40
2019-05-25T10:08:01.852Z,5.30
2019-05-25T10:09:01.837Z,5.50
2019-05-25T10:10:01.825Z,5.70
2019-05-25T10:11:01.813Z,5.80
2019-05-25T10:12:01.811Z,5.10
2019-05-25T10:13:01.791Z,5.00
2019-05-25T10:14:01.787Z,4.90
2019-05-25T10:15:01.768Z,5.40
2019-05-25T10:16:01.793Z,5.50
2019-05-25T10:17:01.756Z,5.30
2019-05-25T10:18:01.738Z,5.40
2019-05-25T10:19:01.723Z,4.80
2019-05-25T10:20:01.721Z,4.90
2019-05-25T10:21:01.718Z,4.80
2019-05-25T10:22:01.693Z,5.60
2019-05-25T10:23:01.680Z,6.30
2019-05-25T10:24:01.674Z,6.10
2019-05-25T10:25:01.657Z,5.60
2019-05-25T10:26:01.661Z,7.10
2019-05-25T10:27:01.680Z,4.70
2019-05-25T10:28:01.623Z,6.00
2019-05-25T10:29:01.612Z,5.40
2019-05-25T10:30:01.607Z,5.70
2019-05-25T10:31:01.614Z,5.60
2019-05-25T10:32:01.580Z,4.70
2019-05-25T10:33:01.676Z,4.60
2019-05-25T10:34:01.574Z,6.10
2019-05-25T10:35:01.551Z,5.70
2019-05-25T10:36:01.568Z,6.40
2019-05-25T10:37:01.560Z,7.90
2019-05-25T10:38:01.538Z,5.20
2019-05-25T10:39:01.509Z,6.70
2019-05-25T10:40:01.497Z,6.00
2019-05-25T10:41:01.495Z,5.50
2019-05-25T10:42:01.506Z,5.00
2019-05-25T10:43:01.469Z,5.50
2019-05-25T10:44:01.470Z,5.50
2019-05-25T10:45:01.448Z,5.80
2019-05-25T10:46:01.433Z,4.10
2019-05-25T10:47:01.443Z,3.60
2019-05-25T10:48:01.405Z,3.20
2019-05-25T10:49:01.403Z,3.90
2019-05-25T10:50:01.383Z,4.20
2019-05-25T10:51:01.426Z,3.80
2019-05-25T10:52:01.389Z,4.80
2019-05-25T10:53:01.351Z,4.30
2019-05-25T10:54:01.343Z,4.00
2019-05-25T10:55:01.367Z,4.70
2019-05-25T10:56:01.330Z,3.50
2019-05-25T10:57:01.308Z,4.80
2019-05-25T10:58:01.330Z,3.10
2019-05-25T10:59:01.292Z,4.40
2019-05-25T11:00:01.287Z,3.40
2019-05-25T11:01:01.271Z,4.00
2019-05-25T11:02:01.263Z,3.70
2019-05-25T11:03:01.293Z,4.10
2019-05-25T11:04:01.356Z,2.30
2019-05-25T11:05:01.219Z,2.90
2019-05-25T11:06:01.217Z,2.50
2019-05-25T11:07:01.203Z,2.40
2019-05-25T11:08:01.208Z,1.80
2019-05-25T11:09:01.182Z,2.00
2019-05-25T11:10:01.166Z,3.10
2019-05-25T11:11:01.172Z,1.90
2019-05-25T11:12:01.162Z,1.50
2019-05-25T11:13:01.164Z,1.70
2019-05-25T11:14:01.141Z,1.40
2019-05-25T11:15:01.127Z,2.10
2019-05-25T11:16:01.110Z,2.10
2019-05-25T11:17:01.168Z,2.60
2019-05-25T11:18:01.119Z,1.80
2019-05-25T11:19:01.075Z,2.00
2019-05-25T11:20:01.061Z,2.90
2019-05-25T11:21:01.054Z,2.00
2019-05-25T11:22:01.036Z,1.30
2019-05-25T11:23:01.058Z,1.70
2019-05-25T11:24:01.023Z,1.80
2019-05-25T11:25:01.004Z,1.80
2019-05-25T11:26:00.997Z,1.70
2019-05-25T11:27:00.988Z,2.00
2019-05-25T11:28:00.998Z,3.00
2019-05-25T11:29:00.968Z,1.90
2019-05-25T11:30:09.029Z,1.90
2019-05-25T11:31:01.938Z,1.80
2019-05-25T11:32:04.404Z,1.20
2019-05-25T11:33:00.936Z,2.30
2019-05-25T11:34:00.915Z,1.70
2019-05-25T11:35:00.920Z,1.90
2019-05-25T11:36:00.891Z,1.80
2019-05-25T11:37:00.888Z,1.30
2019-05-25T11:38:00.914Z,1.70
2019-05-25T11:39:00.888Z,1.40
2019-05-25T11:40:00.844Z,1.50
2019-05-25T11:41:00.829Z,1.10
2019-05-25T11:42:00.823Z,2.20
2019-05-25T11:43:00.811Z,1.30
2019-05-25T11:44:00.821Z,1.40
2019-05-25T11:45:00.791Z,2.50
2019-05-25T11:46:00.800Z,1.50
2019-05-25T11:47:00.773Z,0.60
2019-05-25T11:48:00.774Z,0.90
2019-05-25T11:49:00.772Z,2.80
2019-05-25T11:50:00.749Z,1.30
2019-05-25T11:51:00.747Z,0.60
2019-05-25T11:52:00.740Z,0.90
2019-05-25T11:53:00.714Z,0.60
2019-05-25T11:54:00.729Z,2.00
2019-05-25T11:55:00.691Z,0.50
2019-05-25T11:56:00.672Z,14.50
2019-05-25T11:57:00.667Z,3.60
2019-05-25T11:58:00.650Z,2.00
2019-05-25T11:59:00.659Z,1.90
2019-05-25T12:00:00.632Z,0.90
2019-05-25T12:01:00.628Z,1.60
2019-05-25T12:02:00.617Z,1.20
2019-05-25T12:03:00.601Z,2.30
2019-05-25T12:04:00.621Z,1.50
2019-05-25T12:05:00.589Z,1.40
2019-05-25T12:06:00.565Z,0.80
2019-05-25T12:07:00.560Z,7.20
2019-05-25T12:08:00.546Z,0.90
2019-05-25T12:09:00.553Z,1.10
2019-05-25T12:10:00.523Z,1.00
2019-05-25T12:11:00.532Z,2.70
2019-05-25T12:12:00.515Z,3.60
2019-05-25T12:13:00.494Z,1.30
2019-05-25T12:14:00.488Z,1.30
2019-05-25T12:15:00.507Z,1.20
2019-05-25T12:16:00.460Z,1.60
2019-05-25T12:17:00.450Z,1.00
2019-05-25T12:18:00.443Z,0.70
2019-05-25T12:19:00.427Z,0.60
2019-05-25T12:20:00.442Z,1.00
2019-05-25T12:21:00.404Z,0.70
2019-05-25T12:22:00.412Z,0.70
2019-05-25T12:23:00.420Z,1.30
2019-05-25T12:24:00.370Z,0.60
2019-05-25T12:25:00.381Z,1.30
2019-05-25T12:26:00.367Z,0.70
2019-05-25T12:27:00.353Z,1.50
2019-05-25T12:28:00.329Z,1.20
2019-05-25T12:29:00.326Z,1.20
2019-05-25T12:30:00.326Z,0.70
2019-05-25T12:31:00.303Z,1.10
2019-05-25T12:32:04.468Z,1.20
2019-05-25T12:33:00.284Z,0.90
2019-05-25T12:34:00.266Z,2.30
2019-05-25T12:35:00.272Z,1.30
2019-05-25T12:36:00.260Z,1.60
2019-05-25T12:37:00.233Z,1.70
2019-05-25T12:38:00.217Z,0.90
2019-05-25T12:39:00.231Z,1.10
2019-05-25T12:40:00.217Z,1.20
2019-05-25T12:41:00.187Z,1.00
2019-05-25T12:42:00.206Z,1.60
2019-05-25T12:43:00.177Z,2.20
2019-05-25T12:44:00.160Z,1.50
2019-05-25T12:45:00.236Z,1.00
2019-05-25T12:46:00.151Z,1.00
2019-05-25T12:47:00.125Z,0.70
2019-05-25T12:48:00.112Z,1.20
2019-05-25T12:49:00.127Z,0.90
2019-05-25T12:50:00.139Z,1.60
2019-05-25T12:51:00.104Z,0.70
2019-05-25T12:52:00.076Z,0.80
2019-05-25T12:53:00.058Z,0.90
2019-05-25T12:54:00.047Z,1.70
2019-05-25T12:55:00.041Z,1.90
2019-05-25T12:56:00.056Z,1.40
2019-05-25T12:57:02.728Z,0.70
2019-05-25T12:58:00.012Z,1.10
2019-05-25T12:58:59.997Z,1.50
2019-05-25T13:00:14.267Z,1.60
2019-05-25T13:01:00.997Z,1.10
2019-05-25T13:01:59.967Z,1.90
2019-05-25T13:02:59.956Z,0.70
2019-05-25T13:03:59.942Z,1.30
2019-05-25T13:04:59.951Z,0.60
2019-05-25T13:05:59.965Z,0.60
2019-05-25T13:06:59.924Z,1.30
2019-05-25T13:07:59.898Z,1.40
2019-05-25T13:08:59.890Z,0.50
2019-05-25T13:09:59.872Z,0.60
2019-05-25T13:10:59.904Z,0.80
2019-05-25T13:11:59.853Z,1.00
2019-05-25T13:13:02.062Z,0.70
2019-05-25T13:14:13.726Z,2.00
2019-05-25T13:15:00.819Z,2.10
2019-05-25T13:15:59.837Z,1.20
2019-05-25T13:16:59.825Z,1.70